Main page
METAR-TAF:

METAR-TAF

Airports :

Bergerac, France

Bergerac Dordogne Périgord Airport

latitude: 44-49N, longitude: 000-31E, elevation: 51 m

Current weather observation

The report was made 18 minutes ago, at 04:30 UTC
Wind 4 kt from the East/Northeast
Temperature 2°C
Humidity 93%
Pressure 1011 hPa
Visibility 10 km or more
no clouds below 1500 m and no cumulonimbus

METAR: LFBE 270430Z AUTO 07004KT CAVOK 02/01 Q1011 NOSIG

Time: 06:48 (04:48 UTC)

Forecast

The report was made 5 hours and 48 minutes ago, at 23:00 UTC
Forecast valid from 27 at 00 UTC to 27 at 24 UTC
Wind 3 kt from variable directions
Visibility 10 km or more
no clouds below 1500 m and no cumulonimbus
Becoming
from 27 at 08 UTC to 27 at 10 UTC
Wind 12 kt from the West
Temporary
from 27 at 12 UTC to 27 at 17 UTC
Wind 15 kt from the West with gusts up to 25 kt

TAF: LFBE 262300Z 2700/2724 VRB03KT CAVOK BECMG 2708/2710 26012KT TEMPO 2712/2717 27015G25KT

Weather observations and forecasts of more than 4000 airports (METAR and TAF reports).

The available stations are represented by yellow and red dots on the map.

Hover mouse over dot to see the name of the station.

Then click to see weather observations and forecasts.

To change the map : click on the green buttons with a black cross to zoom in, on the green button with a dash to zoom out, or on the green arrows for adjacent maps.


METAR-TAF: